Terminal Aerodrome Forecast
Issued by NWS

Home | Current Version | Previous Version | Text Only | Print | Product List | Glossary On
Versions: 1 2 3 4 5 6 7 8 9 10 11 12 13 14
000
FTUS45 KABQ 031700
TAFSAF
TAF
KSAF 031738Z 0318/0418 26015KT P6SM SCT040 BKN070
      TEMPO 0321/0401 BKN040 BKN070
     FM040200 01006KT P6SM SCT040 BKN070
     FM041200 36013KT P6SM SCT030 SCT070
     FM041700 27015G22KT P6SM SCT030 SCT070=

USA.gov is the U.S. government's official web portal to all federal, state and local government web resources and services.